Time;durP1;ratioP1;P1;durP2;ratioP2;P2;SDS_P1;SDS_P2;PMS_P1;PMS_P2;Temp;Humidity;BMP_temperature;BMP_pressure;BME280_temperature;BME280_humidity;BME280_pressure;Samples;Min_cycle;Max_cycle;Signal;HPM_P1;HPM_P2
2022/02/13 00:01:01;;;;;;;13.20;5.80;;;1.30;99.90;;;-0.46;100.00;101732.75;4990480;28;20033;-76
2022/02/13 00:03:30;;;;;;;14.07;5.28;;;1.30;99.90;;;-0.44;100.00;101733.66;4958860;28;20037;-76
2022/02/13 00:05:56;;;;;;;12.50;5.50;;;1.30;99.90;;;-0.46;100.00;101717.25;4998874;28;20040;-77
2022/02/13 00:08:22;;;;;;;16.52;6.03;;;1.40;99.90;;;-0.43;100.00;101723.34;4990663;28;20116;-77
2022/02/13 00:10:48;;;;;;;13.50;6.05;;;1.30;99.90;;;-0.42;100.00;101719.88;5031455;28;20095;-77
2022/02/13 00:13:14;;;;;;;12.30;5.13;;;1.40;99.90;;;-0.40;100.00;101721.66;4989163;28;20481;-75
2022/02/13 00:15:40;;;;;;;18.30;6.25;;;1.40;99.90;;;-0.39;100.00;101715.59;4999932;28;20026;-76
2022/02/13 00:18:06;;;;;;;18.17;5.90;;;1.40;99.90;;;-0.40;100.00;101719.91;4995331;28;20042;-76
2022/02/13 00:20:32;;;;;;;14.68;6.03;;;1.40;99.90;;;-0.41;100.00;101715.59;4972998;28;20045;-76
2022/02/13 00:22:57;;;;;;;17.58;6.22;;;1.40;99.90;;;-0.40;100.00;101690.59;5014085;28;20037;-77
2022/02/13 00:25:23;;;;;;;12.25;4.88;;;1.40;99.90;;;-0.43;100.00;101691.44;4990755;28;20045;-76
2022/02/13 00:27:49;;;;;;;12.00;5.70;;;1.40;99.90;;;-0.38;100.00;101691.50;4989474;28;20916;-76
2022/02/13 00:30:17;;;;;;;10.88;5.47;;;1.40;99.90;;;-0.38;100.00;101689.75;4983884;28;20029;-75
2022/02/13 00:32:44;;;;;;;15.27;5.32;;;1.40;99.90;;;-0.41;100.00;101689.72;4996952;28;24624;-77
2022/02/13 00:35:12;;;;;;;16.95;5.95;;;1.40;99.90;;;-0.45;100.00;101693.97;4961768;28;20465;-77
2022/02/13 00:37:41;;;;;;;16.33;5.47;;;1.40;99.90;;;-0.44;100.00;101695.72;4983752;28;20027;-78
2022/02/13 00:40:08;;;;;;;15.23;5.85;;;1.40;99.90;;;-0.45;100.00;101687.94;4978363;28;20702;-78
2022/02/13 00:42:35;;;;;;;18.33;6.47;;;1.30;99.90;;;-0.45;100.00;101696.56;4988640;28;20207;-78
2022/02/13 00:45:03;;;;;;;10.40;5.75;;;1.30;99.90;;;-0.51;100.00;101696.47;4989368;28;20057;-77
2022/02/13 00:47:29;;;;;;;13.90;5.63;;;1.30;99.90;;;-0.52;100.00;101697.34;4921791;28;20120;-75
2022/02/13 00:49:55;;;;;;;16.45;6.30;;;1.30;99.90;;;-0.50;100.00;101697.34;5006249;28;20535;-77
2022/02/13 00:52:26;;;;;;;18.83;5.95;;;1.30;99.90;;;-0.51;100.00;101686.13;4942759;28;20725;-78
2022/02/13 00:54:52;;;;;;;13.93;5.97;;;1.30;99.90;;;-0.54;100.00;101680.94;4978899;28;20040;-75
2022/02/13 00:57:17;;;;;;;16.17;7.00;;;1.30;99.90;;;-0.55;100.00;101674.00;4979149;28;20033;-76
2022/02/13 00:59:44;;;;;;;14.80;5.80;;;1.30;99.90;;;-0.54;100.00;101673.16;4986524;28;20033;-76
2022/02/13 01:02:10;;;;;;;14.95;5.22;;;1.20;99.90;;;-0.55;100.00;101667.97;4986609;28;20025;-76
2022/02/13 01:04:37;;;;;;;18.92;5.82;;;1.20;99.90;;;-0.55;100.00;101667.97;4978958;28;20052;-76
2022/02/13 01:07:05;;;;;;;16.27;5.57;;;1.30;99.90;;;-0.54;100.00;101656.75;4968807;28;20037;-76
2022/02/13 01:09:31;;;;;;;21.95;6.45;;;1.30;99.90;;;-0.56;100.00;101661.03;4976543;28;20034;-76
2022/02/13 01:11:57;;;;;;;14.10;5.90;;;1.20;99.90;;;-0.56;100.00;101666.19;5015222;28;20488;-76
2022/02/13 01:14:23;;;;;;;14.35;6.00;;;1.20;99.90;;;-0.61;100.00;101642.84;4980797;28;20173;-76
2022/02/13 01:16:49;;;;;;;18.17;6.03;;;1.20;99.90;;;-0.62;100.00;101646.31;4997698;28;20038;-77
2022/02/13 01:19:15;;;;;;;13.32;6.43;;;1.10;99.90;;;-0.68;100.00;101641.91;5008511;28;20022;-76
2022/02/13 01:21:41;;;;;;;13.77;6.10;;;1.10;99.90;;;-0.72;100.00;101632.34;4974060;28;20068;-76
2022/02/13 01:24:10;;;;;;;19.38;6.30;;;1.10;99.90;;;-0.76;100.00;101633.16;4963996;28;20108;-76
2022/02/13 01:26:36;;;;;;;14.60;6.03;;;1.00;99.90;;;-0.77;100.00;101631.44;4962889;28;20363;-77
2022/02/13 01:29:02;;;;;;;14.65;6.03;;;1.00;99.90;;;-0.78;100.00;101637.44;4962560;28;20091;-75
2022/02/13 01:31:28;;;;;;;12.85;6.13;;;1.00;99.90;;;-0.79;100.00;101627.94;4976779;28;20153;-76
2022/02/13 01:33:57;;;;;;;18.65;6.95;;;1.00;99.90;;;-0.79;100.00;101622.78;4962725;28;20087;-76
2022/02/13 01:36:23;;;;;;;11.65;5.95;;;1.00;99.90;;;-0.82;100.00;101612.41;4964091;28;20033;-76
2022/02/13 01:38:48;;;;;;;14.25;6.65;;;0.90;99.90;;;-0.82;100.00;101612.41;4958748;28;20021;-76
2022/02/13 01:41:15;;;;;;;18.65;6.63;;;0.90;99.90;;;-0.83;100.00;101602.91;4975751;28;20556;-75
2022/02/13 01:43:40;;;;;;;13.35;5.93;;;0.90;99.90;;;-0.86;100.00;101610.63;4976473;28;20030;-76
2022/02/13 01:46:06;;;;;;;16.35;5.78;;;0.90;99.90;;;-0.86;100.00;101610.63;4977685;28;20164;-76
2022/02/13 01:48:32;;;;;;;17.40;6.65;;;0.90;99.90;;;-0.84;100.00;101596.88;4996800;28;20421;-75
2022/02/13 01:50:58;;;;;;;13.57;6.40;;;0.90;99.90;;;-0.81;100.00;101590.84;4997474;28;20592;-76
2022/02/13 01:53:24;;;;;;;17.27;6.32;;;0.90;99.90;;;-0.81;100.00;101587.41;4958177;28;20107;-76
2022/02/13 01:55:50;;;;;;;16.67;6.63;;;0.90;99.90;;;-0.79;100.00;101575.38;4959917;28;20540;-76
2022/02/13 01:58:17;;;;;;;17.90;6.45;;;0.90;99.90;;;-0.75;100.00;101583.19;4978570;28;20423;-76
2022/02/13 02:00:43;;;;;;;21.60;7.90;;;1.00;99.90;;;-0.76;100.00;101580.56;4991498;28;20417;-77
2022/02/13 02:03:09;;;;;;;16.27;6.45;;;1.00;99.90;;;-0.77;100.00;101573.69;4991970;28;20027;-75
2022/02/13 02:05:35;;;;;;;15.27;6.35;;;0.90;99.90;;;-0.76;100.00;101567.66;5048387;28;20083;-76
2022/02/13 02:08:01;;;;;;;15.15;6.38;;;1.00;99.90;;;-0.76;100.00;101560.75;4972954;28;20028;-75
2022/02/13 02:10:28;;;;;;;18.55;7.32;;;1.00;99.90;;;-0.75;100.00;101546.13;4940478;28;20042;-77
2022/02/13 02:12:57;;;;;;;15.32;7.00;;;0.90;99.90;;;-0.75;100.00;101552.16;4956483;28;20033;-75
2022/02/13 02:15:23;;;;;;;17.13;7.00;;;0.90;99.90;;;-0.78;100.00;101544.34;4973926;28;20232;-75
2022/02/13 02:17:49;;;;;;;15.23;6.35;;;0.90;99.90;;;-0.80;100.00;101530.50;5002768;28;20482;-75
2022/02/13 02:20:15;;;;;;;14.05;6.47;;;1.00;99.90;;;-0.79;100.00;101529.69;4994746;28;20041;-76
2022/02/13 02:23:07;;;;;;;13.93;7.22;;;0.90;99.90;;;-0.79;100.00;101523.66;4989589;28;20060;-75
2022/02/13 02:25:33;;;;;;;17.15;7.03;;;1.00;99.90;;;-0.81;100.00;101523.63;4959650;28;20513;-76
2022/02/13 02:27:59;;;;;;;14.05;6.72;;;0.90;99.90;;;-0.80;100.00;101522.75;4979586;28;20151;-75
2022/02/13 02:30:25;;;;;;;13.55;6.85;;;0.90;99.90;;;-0.82;100.00;101514.16;4977866;28;20040;-75
2022/02/13 02:32:50;;;;;;;20.92;6.80;;;0.90;99.90;;;-0.83;100.00;101502.03;4950088;28;20044;-76
2022/02/13 02:35:24;;;;;;;18.73;7.05;;;0.90;99.90;;;-0.84;100.00;101505.50;5000760;28;20025;-76
2022/02/13 02:37:50;;;;;;;13.30;6.57;;;0.90;99.90;;;-0.86;100.00;101502.88;4991060;28;20022;-76
2022/02/13 02:40:17;;;;;;;13.98;6.90;;;0.90;99.90;;;-0.85;100.00;101493.41;4997633;28;20045;-75
2022/02/13 02:42:45;;;;;;;13.82;6.72;;;0.90;99.90;;;-0.85;100.00;101488.22;4978235;28;20034;-75
2022/02/13 02:45:13;;;;;;;17.55;7.43;;;0.90;99.90;;;-0.84;100.00;101484.81;4981207;28;20044;-76
2022/02/13 02:47:42;;;;;;;21.38;8.65;;;0.90;99.90;;;-0.85;100.00;101485.63;5001353;28;20036;-76
2022/02/13 02:50:10;;;;;;;22.15;7.03;;;0.90;99.90;;;-0.81;100.00;101478.81;4972312;28;20551;-76
2022/02/13 02:52:37;;;;;;;11.75;6.10;;;0.90;99.90;;;-0.82;100.00;101483.13;4981788;28;20053;-75
2022/02/13 02:55:06;;;;;;;16.88;7.32;;;0.90;99.90;;;-0.84;100.00;101484.81;4991273;28;20060;-75
2022/02/13 02:57:32;;;;;;;13.98;7.22;;;0.90;99.90;;;-0.82;100.00;101480.53;4991603;28;20041;-76
2022/02/13 02:59:58;;;;;;;12.63;6.13;;;0.90;99.90;;;-0.82;100.00;101470.19;4969915;28;20026;-74
2022/02/13 03:02:25;;;;;;;17.08;7.03;;;1.00;99.90;;;-0.83;100.00;101460.69;4964738;28;20099;-75
2022/02/13 03:04:51;;;;;;;19.52;7.93;;;1.00;99.90;;;-0.83;100.00;101460.69;4990647;28;20026;-76
2022/02/13 03:07:19;;;;;;;17.67;7.53;;;1.00;99.90;;;-0.79;100.00;101451.25;4959293;28;20076;-75
2022/02/13 03:09:45;;;;;;;13.68;6.65;;;1.00;99.90;;;-0.77;100.00;101459.91;4990105;28;20077;-76
2022/02/13 03:12:11;;;;;;;17.05;7.80;;;1.00;99.90;;;-0.73;100.00;101451.31;5000646;28;20653;-75
2022/02/13 03:14:37;;;;;;;14.48;7.28;;;1.00;99.90;;;-0.71;100.00;101453.06;5006267;28;20029;-76
2022/02/13 03:17:06;;;;;;;17.98;7.63;;;1.10;99.90;;;-0.69;100.00;101432.38;5002798;28;20025;-75
2022/02/13 03:19:34;;;;;;;19.05;7.20;;;1.00;99.90;;;-0.70;100.00;101443.59;4997511;28;20099;-75
2022/02/13 03:22:00;;;;;;;17.88;8.35;;;1.00;99.90;;;-0.69;100.00;101440.13;4975512;28;20105;-75
2022/02/13 03:24:25;;;;;;;19.80;7.30;;;1.00;99.90;;;-0.71;100.00;101437.56;4984104;28;20034;-75
2022/02/13 03:26:51;;;;;;;14.77;6.85;;;1.00;99.90;;;-0.67;100.00;101436.72;4969140;28;20427;-75
2022/02/13 03:29:17;;;;;;;16.27;7.38;;;1.10;99.90;;;-0.69;100.00;101428.09;4992619;28;20029;-75
2022/02/13 03:31:43;;;;;;;15.30;7.10;;;1.00;99.90;;;-0.69;100.00;101419.44;4987192;28;20397;-75
2022/02/13 03:34:10;;;;;;;15.93;7.07;;;1.00;99.90;;;-0.68;100.00;101413.44;5027532;28;20112;-74
2022/02/13 03:36:36;;;;;;;18.75;7.90;;;1.00;99.90;;;-0.73;100.00;101421.16;4966770;28;20034;-75
2022/02/13 03:39:06;;;;;;;17.40;7.63;;;1.00;99.90;;;-0.77;100.00;101421.09;4986045;28;21655;-75
2022/02/13 03:41:33;;;;;;;19.10;7.72;;;1.00;99.90;;;-0.81;100.00;101422.78;4997904;28;20041;-75
2022/02/13 03:43:59;;;;;;;15.38;7.35;;;1.00;99.90;;;-0.78;100.00;101424.53;4999041;28;20033;-74
2022/02/13 03:46:25;;;;;;;15.48;7.57;;;0.90;99.90;;;-0.82;100.00;101428.81;4988204;28;20021;-75
2022/02/13 03:48:51;;;;;;;14.88;7.20;;;0.90;99.90;;;-0.79;100.00;101427.97;4990501;28;20509;-75
2022/02/13 03:51:17;;;;;;;16.98;8.65;;;0.90;99.90;;;-0.82;100.00;101423.63;5009577;28;20049;-75
2022/02/13 03:53:44;;;;;;;14.18;7.10;;;0.90;99.90;;;-0.86;100.00;101422.72;4991453;28;20037;-75
2022/02/13 03:56:09;;;;;;;22.70;7.70;;;0.90;99.90;;;-0.86;100.00;101416.69;4991389;28;20169;-76
2022/02/13 03:58:35;;;;;;;16.15;8.27;;;0.80;99.90;;;-0.89;100.00;101403.72;5000975;28;20063;-75
2022/02/13 04:01:01;;;;;;;14.40;7.15;;;0.80;99.90;;;-0.86;100.00;101411.53;5002381;28;20021;-75
2022/02/13 04:03:27;;;;;;;18.10;7.75;;;0.80;99.90;;;-0.87;100.00;101413.22;5003902;28;20035;-74
2022/02/13 04:05:55;;;;;;;16.20;7.65;;;0.80;99.90;;;-0.91;100.00;101414.03;4997833;28;20099;-75
2022/02/13 04:08:24;;;;;;;15.65;8.13;;;0.80;99.90;;;-0.91;100.00;101410.59;5000695;28;20030;-75
2022/02/13 04:10:51;;;;;;;13.48;7.63;;;0.80;99.90;;;-0.91;100.00;101398.50;5000809;28;20030;-74
2022/02/13 04:13:17;;;;;;;16.67;7.72;;;0.80;99.90;;;-0.88;100.00;101400.28;5013829;28;20090;-75
2022/02/13 04:15:44;;;;;;;13.70;7.75;;;0.80;99.90;;;-0.91;100.00;101390.75;4999611;28;20026;-74
2022/02/13 04:18:18;;;;;;;18.98;7.82;;;0.80;99.90;;;-0.92;100.00;101390.75;4981148;28;20036;-73
2022/02/13 04:20:45;;;;;;;18.27;8.30;;;0.70;99.90;;;-0.95;100.00;101382.97;5000047;28;20068;-73
2022/02/13 04:23:11;;;;;;;17.35;7.47;;;0.70;99.90;;;-0.97;100.00;101384.66;5000321;28;20025;-74
2022/02/13 04:25:37;;;;;;;17.05;8.05;;;0.80;99.90;;;-0.99;100.00;101376.00;4982645;28;20026;-74
2022/02/13 04:28:04;;;;;;;19.70;8.32;;;0.70;99.90;;;-1.00;100.00;101374.28;4969573;28;20022;-74
2022/02/13 04:30:33;;;;;;;24.52;8.25;;;0.70;99.90;;;-1.02;100.00;101365.66;4981724;28;20022;-73
2022/02/13 04:32:59;;;;;;;16.88;7.97;;;0.70;99.90;;;-1.00;100.00;101348.44;5008585;28;20050;-73
2022/02/13 04:35:27;;;;;;;14.02;7.35;;;0.70;99.90;;;-1.01;100.00;101349.31;4996548;28;20056;-74
2022/02/13 04:37:56;;;;;;;17.02;8.35;;;0.70;99.90;;;-1.00;100.00;101353.63;4989391;28;20057;-73
2022/02/13 04:40:26;;;;;;;16.73;8.50;;;0.70;99.90;;;-1.01;100.00;101357.06;4993412;28;20364;-74
2022/02/13 04:42:52;;;;;;;18.10;8.32;;;0.70;99.90;;;-1.01;100.00;101346.72;4996772;28;20201;-74
2022/02/13 04:45:18;;;;;;;16.23;7.60;;;0.70;99.90;;;-1.05;100.00;101335.47;5010715;28;20030;-74
2022/02/13 04:47:44;;;;;;;14.75;8.07;;;0.70;99.90;;;-1.04;100.00;101334.59;5002203;28;20032;-73
2022/02/13 04:50:11;;;;;;;21.08;8.38;;;0.70;99.90;;;-1.04;100.00;101332.03;4992194;28;20038;-74
2022/02/13 04:52:39;;;;;;;18.00;8.40;;;0.70;99.90;;;-1.05;100.00;101328.56;4987190;28;20053;-73
2022/02/13 04:55:05;;;;;;;16.67;7.85;;;0.70;99.90;;;-1.07;100.00;101317.34;5010281;28;20429;-74
2022/02/13 04:57:31;;;;;;;16.80;7.78;;;0.70;99.90;;;-1.03;100.00;101315.69;4996807;28;20401;-74
2022/02/13 04:59:57;;;;;;;16.88;7.75;;;0.70;99.90;;;-1.01;100.00;101307.94;4975050;28;20219;-74
2022/02/13 05:02:23;;;;;;;18.25;8.63;;;0.70;99.90;;;-1.02;100.00;101309.66;4984040;28;20038;-74
2022/02/13 05:04:49;;;;;;;19.05;8.85;;;0.70;99.90;;;-0.97;100.00;101296.75;5002347;28;20026;-74
2022/02/13 05:07:15;;;;;;;16.70;7.93;;;0.70;99.90;;;-1.00;100.00;101294.16;4993384;28;20121;-74
2022/02/13 05:09:41;;;;;;;14.82;7.65;;;0.70;99.90;;;-0.97;100.00;101292.47;5001001;28;20034;-73
2022/02/13 05:12:07;;;;;;;16.20;7.82;;;0.70;99.90;;;-0.99;100.00;101276.09;4995485;28;20502;-73
2022/02/13 05:14:33;;;;;;;18.33;8.70;;;0.80;99.90;;;-1.01;100.00;101274.34;5002413;28;20101;-73
2022/02/13 05:16:59;;;;;;;17.42;8.27;;;0.70;99.90;;;-1.02;100.00;101270.00;4984871;28;20029;-74
2022/02/13 05:19:25;;;;;;;20.45;8.10;;;0.70;99.90;;;-1.01;100.00;101275.22;4988176;28;20045;-73
2022/02/13 05:21:56;;;;;;;17.80;8.05;;;0.70;99.90;;;-1.02;100.00;101272.59;5002010;28;20026;-74
2022/02/13 05:24:23;;;;;;;19.52;7.97;;;0.70;99.90;;;-1.02;100.00;101262.25;4985421;28;20060;-73
2022/02/13 05:26:49;;;;;;;15.45;8.00;;;0.70;99.90;;;-1.05;100.00;101263.97;5001515;28;20124;-73
2022/02/13 05:29:16;;;;;;;15.98;8.25;;;0.70;99.90;;;-1.08;100.00;101258.78;4989250;28;20378;-73
2022/02/13 05:31:42;;;;;;;19.45;8.02;;;0.60;99.90;;;-1.08;100.00;101263.06;4992977;28;20034;-74
2022/02/13 05:34:12;;;;;;;17.50;8.27;;;0.60;99.90;;;-1.07;100.00;101264.81;5002469;28;20058;-73
2022/02/13 05:36:42;;;;;;;16.52;8.00;;;0.60;99.90;;;-1.08;100.00;101266.53;4987068;28;20029;-73
2022/02/13 05:39:08;;;;;;;18.98;8.45;;;0.60;99.90;;;-1.12;100.00;101263.91;4985596;28;20022;-73
2022/02/13 05:41:34;;;;;;;18.27;8.65;;;0.60;99.90;;;-1.10;100.00;101275.97;5002173;28;20034;-73
2022/02/13 05:44:00;;;;;;;18.05;8.93;;;0.70;99.90;;;-1.08;100.00;101271.69;5001748;28;20033;-73
2022/02/13 05:46:25;;;;;;;19.38;8.13;;;0.70;99.90;;;-1.06;100.00;101262.25;5001306;28;20453;-74
2022/02/13 05:48:52;;;;;;;16.25;8.18;;;0.70;99.90;;;-1.06;100.00;101257.06;4993911;28;20029;-73
2022/02/13 05:51:18;;;;;;;16.98;8.93;;;0.70;99.90;;;-1.04;100.00;101254.47;4999883;28;20033;-73
2022/02/13 05:53:44;;;;;;;16.73;8.52;;;0.70;99.90;;;-1.05;100.00;101256.19;4990742;28;20036;-74
2022/02/13 05:56:10;;;;;;;18.98;9.00;;;0.60;99.90;;;-1.09;100.00;101267.38;4996951;28;20065;-72
2022/02/13 05:58:39;;;;;;;16.27;8.40;;;0.60;99.90;;;-1.14;100.00;101252.69;5001789;28;20026;-72
2022/02/13 06:01:06;;;;;;;20.50;8.85;;;0.60;99.90;;;-1.24;100.00;101255.16;4999548;28;20029;-73
2022/02/13 06:03:32;;;;;;;22.50;8.73;;;1.10;99.90;;;-1.26;100.00;101256.84;5009724;28;20033;-74
2022/02/13 06:05:58;;;;;;;20.60;8.98;;;0.50;99.90;;;-1.29;100.00;101253.38;5002706;28;20079;-73
2022/02/13 06:08:24;;;;;;;20.05;8.55;;;0.50;99.90;;;-1.29;100.00;101243.91;5001783;28;20033;-73
2022/02/13 06:10:50;;;;;;;15.48;8.13;;;0.50;99.90;;;-1.25;100.00;101270.66;5016162;28;20045;-74
2022/02/13 06:13:16;;;;;;;17.17;8.77;;;0.50;99.90;;;-1.35;100.00;101261.94;5002865;28;20049;-73
2022/02/13 06:15:41;;;;;;;16.42;8.30;;;0.40;99.90;;;-1.34;100.00;101267.94;4993110;28;20065;-73
2022/02/13 06:18:07;;;;;;;13.50;8.23;;;0.50;99.90;;;-1.34;100.00;101271.44;4999346;28;20034;-74
2022/02/13 06:20:33;;;;;;;15.90;8.85;;;0.40;99.90;;;-1.35;100.00;101274.00;5000777;28;20030;-73
2022/02/13 06:22:59;;;;;;;16.80;8.70;;;0.40;99.90;;;-1.36;100.00;101256.75;4977074;28;20022;-73
2022/02/13 06:25:25;;;;;;;17.58;8.88;;;0.40;99.90;;;-1.35;100.00;101258.50;4999694;28;20084;-73
2022/02/13 06:27:51;;;;;;;17.77;8.30;;;0.50;99.90;;;-1.36;100.00;101244.72;5003862;28;20371;-74
2022/02/13 06:30:17;;;;;;;19.70;8.63;;;0.40;99.90;;;-1.36;100.00;101244.72;4993350;28;20033;-73
2022/02/13 06:32:43;;;;;;;20.55;9.52;;;0.40;99.90;;;-1.33;100.00;101244.72;4991868;28;20042;-74
2022/02/13 06:35:09;;;;;;;18.05;8.77;;;0.40;99.90;;;-1.29;100.00;101253.38;5013873;28;20030;-73
2022/02/13 06:37:38;;;;;;;14.70;8.35;;;0.50;99.90;;;-1.26;100.00;101256.00;4992077;28;20076;-73
2022/02/13 06:40:05;;;;;;;21.60;9.52;;;0.50;99.90;;;-1.18;100.00;101259.53;4992716;28;20406;-74
2022/02/13 06:42:31;;;;;;;20.30;9.00;;;0.50;99.90;;;-1.16;100.00;101250.06;4999687;28;20041;-73
2022/02/13 06:44:57;;;;;;;19.05;8.30;;;0.60;99.90;;;-1.08;100.00;101248.44;5000781;28;20032;-74
2022/02/13 06:47:22;;;;;;;18.35;9.13;;;0.50;99.90;;;-1.08;100.00;101232.94;4992743;28;20038;-74
2022/02/13 06:49:49;;;;;;;20.10;9.65;;;0.60;99.90;;;-1.00;100.00;101243.31;4999148;28;20478;-73
2022/02/13 06:52:15;;;;;;;16.27;8.93;;;0.60;99.90;;;-0.95;100.00;101245.94;5000030;28;20034;-74
2022/02/13 06:54:41;;;;;;;17.88;9.13;;;0.60;99.90;;;-0.89;100.00;101240.81;4999716;28;20093;-73
2022/02/13 06:57:07;;;;;;;23.15;9.18;;;0.70;99.90;;;-0.82;100.00;101252.97;5004475;28;20406;-74
2022/02/13 06:59:33;;;;;;;17.33;9.23;;;0.70;99.90;;;-0.73;100.00;101263.41;4998230;28;20481;-73
2022/02/13 07:01:59;;;;;;;23.08;9.45;;;0.70;99.90;;;-0.65;100.00;101268.59;4990064;28;20653;-73
2022/02/13 07:04:24;;;;;;;18.90;8.80;;;0.80;99.90;;;-0.53;100.00;101262.69;5000882;28;20029;-73
2022/02/13 07:06:50;;;;;;;19.08;8.95;;;0.90;99.90;;;-0.44;100.00;101262.75;4999701;28;20109;-73
2022/02/13 07:09:17;;;;;;;18.42;9.07;;;0.90;99.90;;;-0.32;100.00;101269.75;5000386;28;20796;-74
2022/02/13 07:11:43;;;;;;;16.05;9.15;;;1.00;99.90;;;-0.23;100.00;101257.72;4993772;28;20486;-74
2022/02/13 07:14:09;;;;;;;18.20;8.95;;;1.10;99.90;;;-0.15;100.00;101257.78;4993062;28;20097;-73
2022/02/13 07:16:34;;;;;;;15.38;8.82;;;1.20;99.90;;;0.32;100.00;101262.28;4976366;28;20060;-74
2022/02/13 07:19:00;;;;;;;19.52;8.65;;;1.50;99.90;;;2.50;98.38;101245.78;4989069;28;20030;-74
2022/02/13 07:21:26;;;;;;;16.85;8.73;;;2.00;99.90;;;3.89;91.60;101246.44;4999264;28;20049;-73
2022/02/13 07:23:52;;;;;;;17.20;8.65;;;2.50;99.90;;;2.81;87.73;101258.63;4998930;28;20552;-73
2022/02/13 07:26:18;;;;;;;16.70;9.23;;;2.70;99.90;;;2.30;87.89;101274.47;4989830;28;21461;-74
2022/02/13 07:29:00;;;;;;;16.88;8.70;;;2.80;99.90;;;2.20;88.49;101271.03;4974292;28;20026;-73
2022/02/13 07:31:28;;;;;;;17.65;8.27;;;3.00;99.90;;;4.35;86.17;101270.25;4986424;28;20057;-74
2022/02/13 07:33:54;;;;;;;17.55;8.77;;;3.70;99.90;;;6.25;78.99;101271.59;4989641;28;20033;-74
2022/02/13 07:36:20;;;;;;;15.25;8.23;;;4.20;99.90;;;7.28;72.33;101291.16;4996714;28;20048;-74
2022/02/13 07:38:46;;;;;;;19.48;8.43;;;4.90;99.90;;;8.18;68.51;101297.56;4982016;28;20137;-73
2022/02/13 07:41:12;;;;;;;13.52;7.80;;;5.70;99.90;;;8.79;64.41;101305.47;4999024;28;20903;-73
2022/02/13 07:43:38;;;;;;;15.80;8.27;;;6.30;99.90;;;9.14;62.46;101248.38;4997688;28;20044;-74
2022/02/13 07:46:04;;;;;;;20.20;8.85;;;6.50;99.90;;;6.54;65.41;101122.72;4989706;28;20405;-74
2022/02/13 07:48:30;;;;;;;17.13;8.07;;;6.20;99.90;;;5.31;70.23;101145.28;5017145;28;20049;-74
2022/02/13 07:50:56;;;;;;;19.15;8.05;;;5.80;99.90;;;4.52;73.84;101289.16;4992807;28;20044;-73
2022/02/13 07:53:22;;;;;;;15.75;7.32;;;5.50;99.90;;;4.97;75.34;101283.31;5001927;28;20042;-74
2022/02/13 07:55:49;;;;;;;15.32;8.23;;;5.60;99.90;;;7.14;70.74;101298.47;5008008;28;20129;-74
2022/02/13 07:58:15;;;;;;;16.67;7.75;;;6.20;99.90;;;8.30;66.05;101326.09;4988709;28;20125;-73
2022/02/13 08:00:41;;;;;;;18.05;8.13;;;7.00;99.90;;;9.88;62.51;101298.50;5002225;28;20506;-76
2022/02/13 08:03:07;;;;;;;15.98;8.20;;;7.90;99.90;;;10.88;58.60;101319.44;4982005;28;20037;-74
2022/02/13 08:05:33;;;;;;;16.67;8.10;;;8.90;99.90;;;11.42;55.81;101310.25;4965929;28;20025;-74
2022/02/13 08:07:58;;;;;;;19.73;7.93;;;9.20;99.90;;;9.44;57.81;101323.59;5029722;28;20033;-74
2022/02/13 08:10:24;;;;;;;13.90;7.93;;;8.80;99.90;;;7.75;61.46;101331.06;4989164;28;20045;-74
2022/02/13 08:12:50;;;;;;;14.45;8.25;;;8.20;99.90;;;6.45;65.50;101324.34;4990653;28;20041;-73
2022/02/13 08:15:16;;;;;;;15.48;7.63;;;7.50;99.90;;;5.59;68.54;101328.47;4998047;28;20875;-74
2022/02/13 08:17:43;;;;;;;12.82;7.93;;;7.10;99.90;;;7.12;67.33;101318.59;4998655;28;20036;-74
2022/02/13 08:20:13;;;;;;;17.20;7.78;;;7.10;99.90;;;6.14;67.82;101316.25;5003761;28;20324;-74
2022/02/13 08:22:40;;;;;;;19.08;8.02;;;7.00;99.90;;;5.86;69.28;101311.50;4979848;28;20026;-74
2022/02/13 08:25:07;;;;;;;11.90;7.45;;;6.70;99.90;;;5.06;71.17;101319.75;5000199;28;20101;-74
2022/02/13 08:27:33;;;;;;;15.98;7.45;;;6.30;99.90;;;4.61;72.59;101314.25;4989008;28;20030;-74
2022/02/13 08:29:59;;;;;;;12.95;7.65;;;6.00;99.90;;;4.79;73.53;101266.19;4989344;28;20021;-74
2022/02/13 08:32:26;;;;;;;17.75;7.72;;;5.90;99.90;;;4.78;73.87;101306.22;4974374;28;20053;-74
2022/02/13 08:34:55;;;;;;;16.15;7.55;;;5.80;99.90;;;4.43;74.69;101304.91;4987961;28;20159;-73
2022/02/13 08:37:21;;;;;;;14.60;7.40;;;5.70;99.90;;;4.47;75.12;101306.59;4971100;28;20025;-74
2022/02/13 08:39:47;;;;;;;14.45;7.43;;;5.60;99.90;;;4.36;75.83;101298.03;5000004;28;20140;-74
2022/02/13 08:42:13;;;;;;;17.83;7.85;;;5.50;99.90;;;4.33;76.06;101285.91;4997391;28;20501;-74
2022/02/13 08:44:40;;;;;;;15.43;7.70;;;5.40;99.90;;;3.99;76.63;101282.81;4996631;28;20056;-73
2022/02/13 08:47:06;;;;;;;14.15;7.18;;;5.30;99.90;;;3.86;77.44;101269.03;5020340;28;20022;-73
2022/02/13 08:49:32;;;;;;;12.48;6.60;;;5.20;99.90;;;3.76;78.24;101275.22;4998164;28;20403;-74
2022/02/13 08:51:58;;;;;;;13.35;7.25;;;5.10;99.90;;;3.75;78.96;101271.75;4998188;28;20118;-74
2022/02/13 08:54:24;;;;;;;12.52;7.10;;;5.00;99.90;;;3.73;79.02;101254.41;4998276;28;20053;-74
2022/02/13 08:56:50;;;;;;;17.25;7.68;;;5.00;99.90;;;3.82;79.52;101254.31;4998149;28;20044;-74
2022/02/13 08:59:16;;;;;;;15.38;7.53;;;5.10;99.90;;;3.87;79.90;101253.41;4965103;28;20398;-74
2022/02/13 09:01:43;;;;;;;16.13;7.22;;;5.20;99.90;;;3.91;79.58;101246.44;4999144;28;20026;-73
2022/02/13 09:04:09;;;;;;;16.48;8.02;;;5.20;99.90;;;4.11;78.99;101240.97;4988416;28;20038;-73
2022/02/13 09:06:35;;;;;;;14.55;8.20;;;5.50;99.90;;;4.64;78.20;101247.25;4998064;28;20038;-73
2022/02/13 09:09:01;;;;;;;13.60;7.30;;;5.80;99.90;;;5.04;76.98;101246.69;5001788;28;20029;-73
2022/02/13 09:11:27;;;;;;;13.38;7.10;;;6.00;99.90;;;4.98;75.77;101256.34;4971775;28;20022;-74
2022/02/13 09:13:53;;;;;;;13.00;7.40;;;6.10;99.90;;;4.92;75.14;101247.75;5000914;28;20041;-73
2022/02/13 09:16:19;;;;;;;18.52;7.85;;;6.20;99.90;;;4.81;75.06;101251.38;4988483;28;20025;-74
2022/02/13 09:18:45;;;;;;;12.48;6.95;;;6.10;99.90;;;4.70;75.58;101251.53;4997983;28;20394;-74
2022/02/13 09:21:11;;;;;;;13.82;7.00;;;6.10;99.90;;;4.64;76.18;101247.25;5012895;28;20034;-74
2022/02/13 09:23:37;;;;;;;14.15;7.30;;;5.90;99.90;;;4.41;76.26;101250.16;4974938;28;20494;-74
2022/02/13 09:26:03;;;;;;;14.13;7.22;;;5.70;99.90;;;4.25;77.29;101248.63;4994324;28;20042;-74
2022/02/13 09:28:28;;;;;;;14.27;6.93;;;5.60;99.90;;;4.01;76.90;101248.03;5008635;28;20042;-74
2022/02/13 09:30:54;;;;;;;13.18;7.28;;;5.50;99.90;;;3.94;77.61;101256.81;5018037;28;20033;-74
2022/02/13 09:33:20;;;;;;;14.43;7.65;;;5.40;99.90;;;4.07;77.61;101255.78;5004405;28;20033;-73
2022/02/13 09:35:47;;;;;;;13.63;6.82;;;5.40;99.90;;;4.46;77.17;101242.28;5000107;28;20057;-74
2022/02/13 09:38:16;;;;;;;13.95;6.93;;;5.60;99.90;;;4.76;76.86;101235.78;5002179;28;20039;-74
2022/02/13 09:40:47;;;;;;;12.45;7.22;;;5.80;99.90;;;4.99;76.05;101251.13;4999334;28;20026;-74
2022/02/13 09:43:16;;;;;;;16.13;6.80;;;6.00;99.90;;;4.86;76.02;101237.38;5007654;28;20029;-74
2022/02/13 09:45:45;;;;;;;11.60;6.35;;;6.00;99.90;;;4.79;75.94;101224.44;4990960;28;20030;-74
2022/02/13 09:48:15;;;;;;;14.35;6.68;;;6.00;99.90;;;4.61;76.40;101216.00;5008009;28;20025;-74
2022/02/13 09:50:41;;;;;;;17.95;7.63;;;6.00;99.90;;;4.55;76.71;101215.22;5000807;28;20029;-74
2022/02/13 09:53:07;;;;;;;11.88;6.70;;;6.00;99.90;;;4.41;77.16;101213.66;5001369;28;20034;-74
2022/02/13 09:55:34;;;;;;;16.85;8.15;;;5.90;99.90;;;4.26;77.01;101208.66;4993814;28;20053;-74
2022/02/13 09:58:03;;;;;;;15.90;7.43;;;5.90;99.90;;;4.30;77.52;101200.78;5004022;28;20030;-74
2022/02/13 10:00:55;;;;;;;14.30;7.32;;;5.80;99.90;;;4.19;77.67;101200.06;4990932;28;20026;-73
2022/02/13 10:03:29;;;;;;;13.02;7.20;;;5.80;99.90;;;4.12;77.74;101206.19;5000849;28;20064;-75
2022/02/13 10:06:00;;;;;;;14.25;7.22;;;5.70;99.90;;;4.03;77.96;101196.75;5024212;28;20036;-74
2022/02/13 10:08:47;;;;;;;18.00;7.63;;;5.60;99.90;;;4.08;78.23;101194.09;4993641;28;20134;-74